sensor_id;sensor_type;location;lat;lon;timestamp;temperature;humidity
76168;DHT22;64927;48.214;16.378;2022-12-18T00:00:42;2.50;61.10
76168;DHT22;64927;48.214;16.378;2022-12-18T00:03:08;2.50;61.10
76168;DHT22;64927;48.214;16.378;2022-12-18T00:05:35;2.40;60.40
76168;DHT22;64927;48.214;16.378;2022-12-18T00:08:00;2.40;60.70
76168;DHT22;64927;48.214;16.378;2022-12-18T00:10:28;2.30;60.70
76168;DHT22;64927;48.214;16.378;2022-12-18T00:12:53;2.20;61.40
76168;DHT22;64927;48.214;16.378;2022-12-18T00:15:19;2.20;61.30
76168;DHT22;64927;48.214;16.378;2022-12-18T00:17:45;2.10;61.10
76168;DHT22;64927;48.214;16.378;2022-12-18T00:20:11;2.00;61.00
76168;DHT22;64927;48.214;16.378;2022-12-18T00:22:39;1.90;61.00
76168;DHT22;64927;48.214;16.378;2022-12-18T00:25:05;1.70;61.50
76168;DHT22;64927;48.214;16.378;2022-12-18T00:27:33;1.60;61.80
76168;DHT22;64927;48.214;16.378;2022-12-18T00:30:01;1.60;62.00
76168;DHT22;64927;48.214;16.378;2022-12-18T00:32:26;1.60;61.90
76168;DHT22;64927;48.214;16.378;2022-12-18T00:34:52;1.50;62.30
76168;DHT22;64927;48.214;16.378;2022-12-18T00:37:18;1.60;62.30
76168;DHT22;64927;48.214;16.378;2022-12-18T00:39:43;1.60;62.00
76168;DHT22;64927;48.214;16.378;2022-12-18T00:42:10;1.70;62.20
76168;DHT22;64927;48.214;16.378;2022-12-18T00:44:54;1.70;62.10
76168;DHT22;64927;48.214;16.378;2022-12-18T00:47:22;1.60;62.20
76168;DHT22;64927;48.214;16.378;2022-12-18T00:49:48;1.50;62.30
76168;DHT22;64927;48.214;16.378;2022-12-18T00:52:14;1.40;62.70
76168;DHT22;64927;48.214;16.378;2022-12-18T00:54:39;1.30;63.40
76168;DHT22;64927;48.214;16.378;2022-12-18T00:57:05;1.30;63.70
76168;DHT22;64927;48.214;16.378;2022-12-18T00:59:30;1.40;64.20
76168;DHT22;64927;48.214;16.378;2022-12-18T01:01:58;1.30;64.20
76168;DHT22;64927;48.214;16.378;2022-12-18T01:04:24;1.30;64.40
76168;DHT22;64927;48.214;16.378;2022-12-18T01:06:49;1.40;64.50
76168;DHT22;64927;48.214;16.378;2022-12-18T01:09:15;1.30;64.30
76168;DHT22;64927;48.214;16.378;2022-12-18T01:11:41;1.20;65.10
76168;DHT22;64927;48.214;16.378;2022-12-18T01:14:09;1.10;65.00
76168;DHT22;64927;48.214;16.378;2022-12-18T01:16:35;1.00;65.40
76168;DHT22;64927;48.214;16.378;2022-12-18T01:19:01;0.90;65.80
76168;DHT22;64927;48.214;16.378;2022-12-18T01:21:27;0.90;65.80
76168;DHT22;64927;48.214;16.378;2022-12-18T01:23:59;0.90;66.00
76168;DHT22;64927;48.214;16.378;2022-12-18T01:26:25;0.80;65.90
76168;DHT22;64927;48.214;16.378;2022-12-18T01:28:51;0.70;65.80
76168;DHT22;64927;48.214;16.378;2022-12-18T01:31:18;0.70;66.00
76168;DHT22;64927;48.214;16.378;2022-12-18T01:33:44;0.80;65.80
76168;DHT22;64927;48.214;16.378;2022-12-18T01:36:28;1.00;65.60
76168;DHT22;64927;48.214;16.378;2022-12-18T01:38:54;1.00;65.30
76168;DHT22;64927;48.214;16.378;2022-12-18T01:41:23;0.90;65.30
76168;DHT22;64927;48.214;16.378;2022-12-18T01:43:56;0.90;65.40
76168;DHT22;64927;48.214;16.378;2022-12-18T01:46:23;0.90;65.60
76168;DHT22;64927;48.214;16.378;2022-12-18T01:48:55;0.70;65.70
76168;DHT22;64927;48.214;16.378;2022-12-18T01:51:22;0.70;66.30
76168;DHT22;64927;48.214;16.378;2022-12-18T01:53:48;0.60;66.40
76168;DHT22;64927;48.214;16.378;2022-12-18T01:56:18;0.50;66.80
76168;DHT22;64927;48.214;16.378;2022-12-18T01:59:07;0.50;67.30
76168;DHT22;64927;48.214;16.378;2022-12-18T02:01:38;0.50;67.50
76168;DHT22;64927;48.214;16.378;2022-12-18T02:04:23;0.50;67.70
76168;DHT22;64927;48.214;16.378;2022-12-18T02:07:11;0.50;67.80
76168;DHT22;64927;48.214;16.378;2022-12-18T02:09:47;0.60;67.70
76168;DHT22;64927;48.214;16.378;2022-12-18T02:14:58;0.40;68.00
76168;DHT22;64927;48.214;16.378;2022-12-18T02:17:39;0.40;67.70
76168;DHT22;64927;48.214;16.378;2022-12-18T02:23:08;0.50;67.50
76168;DHT22;64927;48.214;16.378;2022-12-18T02:28:55;0.40;67.40
76168;DHT22;64927;48.214;16.378;2022-12-18T02:31:28;0.40;67.20
76168;DHT22;64927;48.214;16.378;2022-12-18T02:33:58;0.40;67.40
76168;DHT22;64927;48.214;16.378;2022-12-18T02:36:26;0.30;67.60
76168;DHT22;64927;48.214;16.378;2022-12-18T02:38:53;0.30;67.80
76168;DHT22;64927;48.214;16.378;2022-12-18T02:41:24;0.40;67.70
76168;DHT22;64927;48.214;16.378;2022-12-18T02:44:00;0.30;67.50
76168;DHT22;64927;48.214;16.378;2022-12-18T02:46:32;0.50;67.50
76168;DHT22;64927;48.214;16.378;2022-12-18T03:00:16;0.20;67.90
76168;DHT22;64927;48.214;16.378;2022-12-18T03:05:16;0.30;68.00
76168;DHT22;64927;48.214;16.378;2022-12-18T03:07:58;0.40;67.60
76168;DHT22;64927;48.214;16.378;2022-12-18T03:10:28;0.20;68.20
76168;DHT22;64927;48.214;16.378;2022-12-18T03:13:02;0.10;68.40
76168;DHT22;64927;48.214;16.378;2022-12-18T03:15:31;0.20;68.00
76168;DHT22;64927;48.214;16.378;2022-12-18T03:18:08;0.30;67.90
76168;DHT22;64927;48.214;16.378;2022-12-18T03:20:44;0.30;67.30
76168;DHT22;64927;48.214;16.378;2022-12-18T03:23:15;0.30;67.70
76168;DHT22;64927;48.214;16.378;2022-12-18T03:25:44;0.20;67.60
76168;DHT22;64927;48.214;16.378;2022-12-18T03:28:14;0.40;67.50
76168;DHT22;64927;48.214;16.378;2022-12-18T03:30:43;0.40;67.10
76168;DHT22;64927;48.214;16.378;2022-12-18T03:33:18;0.40;67.40
76168;DHT22;64927;48.214;16.378;2022-12-18T03:35:47;0.40;67.20
76168;DHT22;64927;48.214;16.378;2022-12-18T03:38:16;0.30;67.10
76168;DHT22;64927;48.214;16.378;2022-12-18T03:40:59;0.20;67.20
76168;DHT22;64927;48.214;16.378;2022-12-18T03:43:32;0.20;67.50
76168;DHT22;64927;48.214;16.378;2022-12-18T03:46:28;0.10;67.20
76168;DHT22;64927;48.214;16.378;2022-12-18T03:49:01;0.10;67.80
76168;DHT22;64927;48.214;16.378;2022-12-18T03:54:08;0.00;67.90
76168;DHT22;64927;48.214;16.378;2022-12-18T03:56:42;0.00;68.10
76168;DHT22;64927;48.214;16.378;2022-12-18T03:59:11;0.10;67.80
76168;DHT22;64927;48.214;16.378;2022-12-18T04:01:40;0.10;67.60
76168;DHT22;64927;48.214;16.378;2022-12-18T04:04:08;0.00;67.70
76168;DHT22;64927;48.214;16.378;2022-12-18T04:06:35;0.10;67.80
76168;DHT22;64927;48.214;16.378;2022-12-18T04:09:02;0.10;67.50
76168;DHT22;64927;48.214;16.378;2022-12-18T04:11:27;0.20;67.50
76168;DHT22;64927;48.214;16.378;2022-12-18T04:13:56;0.10;67.20
76168;DHT22;64927;48.214;16.378;2022-12-18T04:16:26;0.10;67.50
76168;DHT22;64927;48.214;16.378;2022-12-18T04:18:52;0.00;67.70
76168;DHT22;64927;48.214;16.378;2022-12-18T04:21:21;0.10;67.50
76168;DHT22;64927;48.214;16.378;2022-12-18T04:23:50;0.20;67.30
76168;DHT22;64927;48.214;16.378;2022-12-18T04:26:16;0.20;67.20
76168;DHT22;64927;48.214;16.378;2022-12-18T04:28:41;0.10;67.20
76168;DHT22;64927;48.214;16.378;2022-12-18T04:31:07;0.00;67.30
76168;DHT22;64927;48.214;16.378;2022-12-18T04:33:35;0.00;67.00
76168;DHT22;64927;48.214;16.378;2022-12-18T04:36:04;0.10;67.20
76168;DHT22;64927;48.214;16.378;2022-12-18T04:38:30;0.20;67.10
76168;DHT22;64927;48.214;16.378;2022-12-18T04:40:55;0.40;66.80
76168;DHT22;64927;48.214;16.378;2022-12-18T04:43:23;0.50;66.20
76168;DHT22;64927;48.214;16.378;2022-12-18T04:45:51;0.50;66.00
76168;DHT22;64927;48.214;16.378;2022-12-18T04:48:20;0.50;66.00
76168;DHT22;64927;48.214;16.378;2022-12-18T04:50:46;0.40;65.80
76168;DHT22;64927;48.214;16.378;2022-12-18T04:53:12;0.50;65.90
76168;DHT22;64927;48.214;16.378;2022-12-18T04:55:38;0.50;65.70
76168;DHT22;64927;48.214;16.378;2022-12-18T04:58:03;0.50;65.60
76168;DHT22;64927;48.214;16.378;2022-12-18T05:00:34;0.40;65.70
76168;DHT22;64927;48.214;16.378;2022-12-18T05:03:04;0.40;65.80
76168;DHT22;64927;48.214;16.378;2022-12-18T05:05:30;0.30;66.00
76168;DHT22;64927;48.214;16.378;2022-12-18T05:07:55;0.30;66.00
76168;DHT22;64927;48.214;16.378;2022-12-18T05:10:21;0.20;66.10
76168;DHT22;64927;48.214;16.378;2022-12-18T05:12:47;0.10;66.40
76168;DHT22;64927;48.214;16.378;2022-12-18T05:15:33;0.10;67.20
76168;DHT22;64927;48.214;16.378;2022-12-18T05:18:00;0.20;66.30
76168;DHT22;64927;48.214;16.378;2022-12-18T05:20:29;0.20;66.30
76168;DHT22;64927;48.214;16.378;2022-12-18T05:22:56;0.30;66.50
76168;DHT22;64927;48.214;16.378;2022-12-18T05:25:24;0.40;66.20
76168;DHT22;64927;48.214;16.378;2022-12-18T05:27:52;0.40;65.90
76168;DHT22;64927;48.214;16.378;2022-12-18T05:30:17;0.40;65.80
76168;DHT22;64927;48.214;16.378;2022-12-18T05:32:43;0.50;65.80
76168;DHT22;64927;48.214;16.378;2022-12-18T05:35:16;0.50;65.60
76168;DHT22;64927;48.214;16.378;2022-12-18T05:37:46;0.50;65.80
76168;DHT22;64927;48.214;16.378;2022-12-18T05:40:12;0.30;66.20
76168;DHT22;64927;48.214;16.378;2022-12-18T05:42:38;0.20;66.70
76168;DHT22;64927;48.214;16.378;2022-12-18T05:45:04;0.20;66.80
76168;DHT22;64927;48.214;16.378;2022-12-18T05:47:30;0.10;67.20
76168;DHT22;64927;48.214;16.378;2022-12-18T05:49:55;0.30;67.00
76168;DHT22;64927;48.214;16.378;2022-12-18T05:52:23;0.10;67.40
76168;DHT22;64927;48.214;16.378;2022-12-18T05:54:51;0.20;67.10
76168;DHT22;64927;48.214;16.378;2022-12-18T05:57:17;0.20;67.30
76168;DHT22;64927;48.214;16.378;2022-12-18T05:59:43;0.20;67.10
76168;DHT22;64927;48.214;16.378;2022-12-18T06:02:08;0.00;67.30
76168;DHT22;64927;48.214;16.378;2022-12-18T06:04:34;-0.10;68.00
76168;DHT22;64927;48.214;16.378;2022-12-18T06:07:00;-0.10;68.40
76168;DHT22;64927;48.214;16.378;2022-12-18T06:09:29;-0.10;68.00
76168;DHT22;64927;48.214;16.378;2022-12-18T06:11:54;-0.10;68.20
76168;DHT22;64927;48.214;16.378;2022-12-18T06:14:22;-0.10;68.20
76168;DHT22;64927;48.214;16.378;2022-12-18T06:16:50;-0.20;68.60
76168;DHT22;64927;48.214;16.378;2022-12-18T06:19:17;-0.30;68.80
76168;DHT22;64927;48.214;16.378;2022-12-18T06:21:45;-0.30;68.60
76168;DHT22;64927;48.214;16.378;2022-12-18T06:24:11;-0.40;68.40
76168;DHT22;64927;48.214;16.378;2022-12-18T06:26:40;-0.30;68.60
76168;DHT22;64927;48.214;16.378;2022-12-18T06:29:06;-0.30;68.70
76168;DHT22;64927;48.214;16.378;2022-12-18T06:31:31;-0.30;68.80
76168;DHT22;64927;48.214;16.378;2022-12-18T06:33:57;-0.20;68.60
76168;DHT22;64927;48.214;16.378;2022-12-18T06:36:23;-0.10;68.40
76168;DHT22;64927;48.214;16.378;2022-12-18T06:38:48;0.00;67.90
76168;DHT22;64927;48.214;16.378;2022-12-18T06:41:17;0.00;67.70
76168;DHT22;64927;48.214;16.378;2022-12-18T06:43:44;0.00;67.70
76168;DHT22;64927;48.214;16.378;2022-12-18T06:46:09;-0.10;68.20
76168;DHT22;64927;48.214;16.378;2022-12-18T06:48:35;0.10;68.10
76168;DHT22;64927;48.214;16.378;2022-12-18T06:51:01;0.00;67.70
76168;DHT22;64927;48.214;16.378;2022-12-18T06:53:31;-0.10;68.30
76168;DHT22;64927;48.214;16.378;2022-12-18T06:56:05;-0.10;68.20
76168;DHT22;64927;48.214;16.378;2022-12-18T06:58:31;-0.20;68.40
76168;DHT22;64927;48.214;16.378;2022-12-18T07:01:05;-0.30;69.00
76168;DHT22;64927;48.214;16.378;2022-12-18T07:03:33;-0.30;69.00
76168;DHT22;64927;48.214;16.378;2022-12-18T07:05:59;-0.30;69.50
76168;DHT22;64927;48.214;16.378;2022-12-18T07:08:24;-0.40;69.60
76168;DHT22;64927;48.214;16.378;2022-12-18T07:10:50;-0.40;70.00
76168;DHT22;64927;48.214;16.378;2022-12-18T07:13:16;-0.40;70.00
76168;DHT22;64927;48.214;16.378;2022-12-18T07:15:44;-0.30;70.20
76168;DHT22;64927;48.214;16.378;2022-12-18T07:18:12;-0.40;70.50
76168;DHT22;64927;48.214;16.378;2022-12-18T07:20:38;-0.60;71.10
76168;DHT22;64927;48.214;16.378;2022-12-18T07:23:04;-0.70;71.70
76168;DHT22;64927;48.214;16.378;2022-12-18T07:25:34;-0.80;72.10
76168;DHT22;64927;48.214;16.378;2022-12-18T07:28:00;-0.80;72.30
76168;DHT22;64927;48.214;16.378;2022-12-18T07:30:28;-0.90;72.70
76168;DHT22;64927;48.214;16.378;2022-12-18T07:32:55;-0.90;72.40
76168;DHT22;64927;48.214;16.378;2022-12-18T07:35:21;-0.90;72.60
76168;DHT22;64927;48.214;16.378;2022-12-18T07:37:47;-0.90;72.40
76168;DHT22;64927;48.214;16.378;2022-12-18T07:40:13;-0.80;72.10
76168;DHT22;64927;48.214;16.378;2022-12-18T07:42:41;-0.80;72.00
76168;DHT22;64927;48.214;16.378;2022-12-18T07:45:06;-0.70;71.40
76168;DHT22;64927;48.214;16.378;2022-12-18T07:47:34;-0.60;71.00
76168;DHT22;64927;48.214;16.378;2022-12-18T07:50:01;-0.70;70.80
76168;DHT22;64927;48.214;16.378;2022-12-18T07:52:26;-0.60;71.10
76168;DHT22;64927;48.214;16.378;2022-12-18T07:54:52;-0.60;70.40
76168;DHT22;64927;48.214;16.378;2022-12-18T07:57:17;-0.60;70.60
76168;DHT22;64927;48.214;16.378;2022-12-18T07:59:43;-0.50;70.40
76168;DHT22;64927;48.214;16.378;2022-12-18T08:02:09;-0.40;69.60
76168;DHT22;64927;48.214;16.378;2022-12-18T08:04:34;-0.50;69.30
76168;DHT22;64927;48.214;16.378;2022-12-18T08:07:00;-0.50;69.80
76168;DHT22;64927;48.214;16.378;2022-12-18T08:09:25;-0.50;69.80
76168;DHT22;64927;48.214;16.378;2022-12-18T08:11:51;-0.40;69.30
76168;DHT22;64927;48.214;16.378;2022-12-18T08:14:17;-0.20;68.80
76168;DHT22;64927;48.214;16.378;2022-12-18T08:16:42;0.00;68.50
76168;DHT22;64927;48.214;16.378;2022-12-18T08:19:08;0.00;67.90
76168;DHT22;64927;48.214;16.378;2022-12-18T08:21:33;0.00;67.50
76168;DHT22;64927;48.214;16.378;2022-12-18T08:24:00;-0.20;67.90
76168;DHT22;64927;48.214;16.378;2022-12-18T08:26:28;-0.20;68.30
76168;DHT22;64927;48.214;16.378;2022-12-18T08:28:55;-0.30;69.10
76168;DHT22;64927;48.214;16.378;2022-12-18T08:31:24;-0.10;69.10
76168;DHT22;64927;48.214;16.378;2022-12-18T08:33:54;0.20;68.20
76168;DHT22;64927;48.214;16.378;2022-12-18T08:36:20;0.30;67.60
76168;DHT22;64927;48.214;16.378;2022-12-18T08:38:47;0.30;66.60
76168;DHT22;64927;48.214;16.378;2022-12-18T08:41:18;0.30;67.00
76168;DHT22;64927;48.214;16.378;2022-12-18T08:43:44;0.30;66.70
76168;DHT22;64927;48.214;16.378;2022-12-18T08:46:35;0.20;67.10
76168;DHT22;64927;48.214;16.378;2022-12-18T08:49:01;0.10;67.90
76168;DHT22;64927;48.214;16.378;2022-12-18T08:51:26;0.20;67.60
76168;DHT22;64927;48.214;16.378;2022-12-18T08:53:52;0.20;67.30
76168;DHT22;64927;48.214;16.378;2022-12-18T08:56:17;0.30;67.30
76168;DHT22;64927;48.214;16.378;2022-12-18T08:58:43;0.30;67.10
76168;DHT22;64927;48.214;16.378;2022-12-18T09:01:12;0.40;66.80
76168;DHT22;64927;48.214;16.378;2022-12-18T09:03:39;0.30;67.20
76168;DHT22;64927;48.214;16.378;2022-12-18T09:06:07;0.50;66.70
76168;DHT22;64927;48.214;16.378;2022-12-18T09:08:33;0.30;67.20
76168;DHT22;64927;48.214;16.378;2022-12-18T09:10:59;0.50;66.60
76168;DHT22;64927;48.214;16.378;2022-12-18T09:13:27;0.40;65.80
76168;DHT22;64927;48.214;16.378;2022-12-18T09:15:54;0.40;66.10
76168;DHT22;64927;48.214;16.378;2022-12-18T09:18:22;0.30;66.80
76168;DHT22;64927;48.214;16.378;2022-12-18T09:20:48;0.40;67.10
76168;DHT22;64927;48.214;16.378;2022-12-18T09:23:15;0.70;66.10
76168;DHT22;64927;48.214;16.378;2022-12-18T09:25:41;0.80;66.00
76168;DHT22;64927;48.214;16.378;2022-12-18T09:28:14;1.00;64.70
76168;DHT22;64927;48.214;16.378;2022-12-18T09:30:49;1.00;65.20
76168;DHT22;64927;48.214;16.378;2022-12-18T09:33:16;1.00;64.50
76168;DHT22;64927;48.214;16.378;2022-12-18T09:35:43;1.20;64.30
76168;DHT22;64927;48.214;16.378;2022-12-18T09:38:19;1.20;64.00
76168;DHT22;64927;48.214;16.378;2022-12-18T09:40:47;1.20;62.90
76168;DHT22;64927;48.214;16.378;2022-12-18T09:43:24;1.10;63.60
76168;DHT22;64927;48.214;16.378;2022-12-18T09:45:58;1.10;63.90
76168;DHT22;64927;48.214;16.378;2022-12-18T09:48:34;1.10;63.20
76168;DHT22;64927;48.214;16.378;2022-12-18T09:51:24;1.10;64.00
76168;DHT22;64927;48.214;16.378;2022-12-18T09:53:55;1.10;63.30
76168;DHT22;64927;48.214;16.378;2022-12-18T09:56:23;1.00;63.30
76168;DHT22;64927;48.214;16.378;2022-12-18T09:58:59;1.00;63.40
76168;DHT22;64927;48.214;16.378;2022-12-18T10:01:27;1.10;63.70
76168;DHT22;64927;48.214;16.378;2022-12-18T10:03:53;1.20;63.60
76168;DHT22;64927;48.214;16.378;2022-12-18T10:06:50;1.20;63.20
76168;DHT22;64927;48.214;16.378;2022-12-18T10:09:27;1.30;62.60
76168;DHT22;64927;48.214;16.378;2022-12-18T10:14:34;1.00;62.80
76168;DHT22;64927;48.214;16.378;2022-12-18T10:17:10;1.00;63.00
76168;DHT22;64927;48.214;16.378;2022-12-18T10:19:54;1.00;62.90
76168;DHT22;64927;48.214;16.378;2022-12-18T10:27:45;1.00;63.10
76168;DHT22;64927;48.214;16.378;2022-12-18T10:30:17;1.00;64.20
76168;DHT22;64927;48.214;16.378;2022-12-18T10:32:43;1.00;62.70
76168;DHT22;64927;48.214;16.378;2022-12-18T10:35:19;1.10;62.70
76168;DHT22;64927;48.214;16.378;2022-12-18T10:40:28;1.10;63.00
76168;DHT22;64927;48.214;16.378;2022-12-18T10:43:09;1.00;62.70
76168;DHT22;64927;48.214;16.378;2022-12-18T10:45:41;1.00;63.50
76168;DHT22;64927;48.214;16.378;2022-12-18T10:48:20;1.20;63.20
76168;DHT22;64927;48.214;16.378;2022-12-18T10:50:49;1.30;62.90
76168;DHT22;64927;48.214;16.378;2022-12-18T10:53:24;1.10;63.20
76168;DHT22;64927;48.214;16.378;2022-12-18T10:55:52;1.30;62.30
76168;DHT22;64927;48.214;16.378;2022-12-18T10:58:34;1.30;62.70
76168;DHT22;64927;48.214;16.378;2022-12-18T11:01:17;1.10;62.70
76168;DHT22;64927;48.214;16.378;2022-12-18T11:04:08;1.10;63.90
76168;DHT22;64927;48.214;16.378;2022-12-18T11:06:34;1.20;62.30
76168;DHT22;64927;48.214;16.378;2022-12-18T11:09:21;1.00;62.70
76168;DHT22;64927;48.214;16.378;2022-12-18T11:11:53;1.00;62.60
76168;DHT22;64927;48.214;16.378;2022-12-18T11:14:33;1.10;63.50
76168;DHT22;64927;48.214;16.378;2022-12-18T11:17:00;1.10;63.20
76168;DHT22;64927;48.214;16.378;2022-12-18T11:21:58;1.20;62.50
76168;DHT22;64927;48.214;16.378;2022-12-18T11:24:30;1.10;63.00
76168;DHT22;64927;48.214;16.378;2022-12-18T11:27:03;1.10;62.80
76168;DHT22;64927;48.214;16.378;2022-12-18T11:29:39;1.10;62.90
76168;DHT22;64927;48.214;16.378;2022-12-18T11:32:46;1.10;63.40
76168;DHT22;64927;48.214;16.378;2022-12-18T11:35:59;1.10;63.10
76168;DHT22;64927;48.214;16.378;2022-12-18T11:38:32;1.20;62.90
76168;DHT22;64927;48.214;16.378;2022-12-18T11:43:59;1.20;62.60
76168;DHT22;64927;48.214;16.378;2022-12-18T11:46:37;1.20;62.40
76168;DHT22;64927;48.214;16.378;2022-12-18T11:49:03;1.30;63.60
76168;DHT22;64927;48.214;16.378;2022-12-18T11:52:10;1.50;62.40
76168;DHT22;64927;48.214;16.378;2022-12-18T11:54:41;1.30;62.40
76168;DHT22;64927;48.214;16.378;2022-12-18T11:57:21;1.30;62.70
76168;DHT22;64927;48.214;16.378;2022-12-18T12:00:16;1.40;62.40
76168;DHT22;64927;48.214;16.378;2022-12-18T12:05:40;1.40;62.70
76168;DHT22;64927;48.214;16.378;2022-12-18T12:08:34;1.30;62.70
76168;DHT22;64927;48.214;16.378;2022-12-18T12:14:13;1.20;63.50
76168;DHT22;64927;48.214;16.378;2022-12-18T12:16:50;1.30;63.30
76168;DHT22;64927;48.214;16.378;2022-12-18T12:19:40;1.40;63.20
76168;DHT22;64927;48.214;16.378;2022-12-18T12:22:39;1.30;62.90
76168;DHT22;64927;48.214;16.378;2022-12-18T12:25:37;1.10;63.90
76168;DHT22;64927;48.214;16.378;2022-12-18T12:38:58;0.90;64.80
76168;DHT22;64927;48.214;16.378;2022-12-18T12:41:27;0.90;65.00
76168;DHT22;64927;48.214;16.378;2022-12-18T12:44:45;1.00;64.70
76168;DHT22;64927;48.214;16.378;2022-12-18T12:47:25;1.00;64.50
76168;DHT22;64927;48.214;16.378;2022-12-18T12:49:54;1.00;64.70
76168;DHT22;64927;48.214;16.378;2022-12-18T12:52:35;1.00;64.60
76168;DHT22;64927;48.214;16.378;2022-12-18T12:55:06;1.10;64.00
76168;DHT22;64927;48.214;16.378;2022-12-18T12:57:37;1.00;64.40
76168;DHT22;64927;48.214;16.378;2022-12-18T13:00:18;1.00;64.40
76168;DHT22;64927;48.214;16.378;2022-12-18T13:08:09;0.90;64.90
76168;DHT22;64927;48.214;16.378;2022-12-18T13:10:39;0.80;65.00
76168;DHT22;64927;48.214;16.378;2022-12-18T13:13:10;0.70;65.40
76168;DHT22;64927;48.214;16.378;2022-12-18T13:18:23;0.90;65.40
76168;DHT22;64927;48.214;16.378;2022-12-18T13:21:02;0.80;65.30
76168;DHT22;64927;48.214;16.378;2022-12-18T13:34:19;0.80;65.40
76168;DHT22;64927;48.214;16.378;2022-12-18T13:36:45;0.80;65.70
76168;DHT22;64927;48.214;16.378;2022-12-18T13:41:47;0.80;65.50
76168;DHT22;64927;48.214;16.378;2022-12-18T13:44:37;0.80;66.30
76168;DHT22;64927;48.214;16.378;2022-12-18T13:47:25;0.60;66.50
76168;DHT22;64927;48.214;16.378;2022-12-18T13:49:51;0.50;67.10
76168;DHT22;64927;48.214;16.378;2022-12-18T13:52:26;0.60;67.10
76168;DHT22;64927;48.214;16.378;2022-12-18T13:55:04;0.60;67.50
76168;DHT22;64927;48.214;16.378;2022-12-18T13:57:34;0.70;67.50
76168;DHT22;64927;48.214;16.378;2022-12-18T14:02:48;0.70;67.20
76168;DHT22;64927;48.214;16.378;2022-12-18T14:05:30;0.60;67.30
76168;DHT22;64927;48.214;16.378;2022-12-18T14:08:08;0.60;68.60
76168;DHT22;64927;48.214;16.378;2022-12-18T14:10:35;0.60;68.10
76168;DHT22;64927;48.214;16.378;2022-12-18T14:13:09;0.70;67.80
76168;DHT22;64927;48.214;16.378;2022-12-18T14:15:40;0.60;67.60
76168;DHT22;64927;48.214;16.378;2022-12-18T14:20:48;0.70;67.90
76168;DHT22;64927;48.214;16.378;2022-12-18T14:25:57;0.80;67.70
76168;DHT22;64927;48.214;16.378;2022-12-18T14:28:23;0.80;67.30
76168;DHT22;64927;48.214;16.378;2022-12-18T14:30:49;0.80;67.20
76168;DHT22;64927;48.214;16.378;2022-12-18T14:33:19;0.80;67.60
76168;DHT22;64927;48.214;16.378;2022-12-18T14:36:03;0.70;68.10
76168;DHT22;64927;48.214;16.378;2022-12-18T14:43:31;0.60;68.50
76168;DHT22;64927;48.214;16.378;2022-12-18T14:45:57;0.60;68.60
76168;DHT22;64927;48.214;16.378;2022-12-18T14:48:39;0.70;68.30
76168;DHT22;64927;48.214;16.378;2022-12-18T14:51:21;0.60;68.50
76168;DHT22;64927;48.214;16.378;2022-12-18T14:53:47;0.70;68.60
76168;DHT22;64927;48.214;16.378;2022-12-18T14:56:34;0.60;68.60
76168;DHT22;64927;48.214;16.378;2022-12-18T14:59:17;0.50;69.10
76168;DHT22;64927;48.214;16.378;2022-12-18T15:04:45;0.50;69.00
76168;DHT22;64927;48.214;16.378;2022-12-18T15:07:18;0.50;69.40
76168;DHT22;64927;48.214;16.378;2022-12-18T15:23:22;0.50;69.80
76168;DHT22;64927;48.214;16.378;2022-12-18T15:28:54;0.70;69.30
76168;DHT22;64927;48.214;16.378;2022-12-18T15:31:34;0.70;69.30
76168;DHT22;64927;48.214;16.378;2022-12-18T15:34:18;0.60;69.70
76168;DHT22;64927;48.214;16.378;2022-12-18T15:36:46;0.50;69.90
76168;DHT22;64927;48.214;16.378;2022-12-18T15:39:14;0.40;70.30
76168;DHT22;64927;48.214;16.378;2022-12-18T15:41:42;0.50;70.30
76168;DHT22;64927;48.214;16.378;2022-12-18T15:44:28;0.40;70.60
76168;DHT22;64927;48.214;16.378;2022-12-18T15:46:54;0.40;70.60
76168;DHT22;64927;48.214;16.378;2022-12-18T15:49:20;0.50;71.20
76168;DHT22;64927;48.214;16.378;2022-12-18T15:51:52;0.50;70.30
76168;DHT22;64927;48.214;16.378;2022-12-18T15:54:19;0.60;70.30
76168;DHT22;64927;48.214;16.378;2022-12-18T15:57:10;0.70;69.90
76168;DHT22;64927;48.214;16.378;2022-12-18T15:59:54;0.80;69.60
76168;DHT22;64927;48.214;16.378;2022-12-18T16:02:22;0.80;69.50
76168;DHT22;64927;48.214;16.378;2022-12-18T16:04:49;0.80;69.10
76168;DHT22;64927;48.214;16.378;2022-12-18T16:07:15;0.80;69.40
76168;DHT22;64927;48.214;16.378;2022-12-18T16:09:42;0.90;69.80
76168;DHT22;64927;48.214;16.378;2022-12-18T16:12:22;0.90;69.30
76168;DHT22;64927;48.214;16.378;2022-12-18T16:14:50;0.90;69.30
76168;DHT22;64927;48.214;16.378;2022-12-18T16:17:19;0.90;69.50
76168;DHT22;64927;48.214;16.378;2022-12-18T16:19:45;1.00;69.30
76168;DHT22;64927;48.214;16.378;2022-12-18T16:22:20;1.00;69.30
76168;DHT22;64927;48.214;16.378;2022-12-18T16:24:46;1.10;69.20
76168;DHT22;64927;48.214;16.378;2022-12-18T16:27:16;1.10;69.00
76168;DHT22;64927;48.214;16.378;2022-12-18T16:29:42;1.10;68.90
76168;DHT22;64927;48.214;16.378;2022-12-18T16:32:13;1.20;69.10
76168;DHT22;64927;48.214;16.378;2022-12-18T16:34:41;1.30;68.60
76168;DHT22;64927;48.214;16.378;2022-12-18T16:37:08;1.30;68.30
76168;DHT22;64927;48.214;16.378;2022-12-18T16:39:35;1.20;68.40
76168;DHT22;64927;48.214;16.378;2022-12-18T16:42:15;1.10;68.80
76168;DHT22;64927;48.214;16.378;2022-12-18T16:44:43;1.00;69.10
76168;DHT22;64927;48.214;16.378;2022-12-18T16:47:12;1.00;69.10
76168;DHT22;64927;48.214;16.378;2022-12-18T16:49:38;1.00;69.30
76168;DHT22;64927;48.214;16.378;2022-12-18T16:52:05;1.00;69.30
76168;DHT22;64927;48.214;16.378;2022-12-18T16:54:32;1.00;69.60
76168;DHT22;64927;48.214;16.378;2022-12-18T16:57:02;1.10;69.60
76168;DHT22;64927;48.214;16.378;2022-12-18T16:59:28;1.20;69.10
76168;DHT22;64927;48.214;16.378;2022-12-18T17:01:54;1.30;68.90
76168;DHT22;64927;48.214;16.378;2022-12-18T17:04:21;1.30;68.70
76168;DHT22;64927;48.214;16.378;2022-12-18T17:06:48;1.30;69.10
76168;DHT22;64927;48.214;16.378;2022-12-18T17:09:17;1.30;69.20
76168;DHT22;64927;48.214;16.378;2022-12-18T17:11:53;1.30;69.20
76168;DHT22;64927;48.214;16.378;2022-12-18T17:14:22;1.30;69.20
76168;DHT22;64927;48.214;16.378;2022-12-18T17:16:50;1.20;70.10
76168;DHT22;64927;48.214;16.378;2022-12-18T17:19:19;1.20;69.50
76168;DHT22;64927;48.214;16.378;2022-12-18T17:21:47;1.20;69.40
76168;DHT22;64927;48.214;16.378;2022-12-18T17:24:14;1.20;69.70
76168;DHT22;64927;48.214;16.378;2022-12-18T17:26:43;1.20;69.60
76168;DHT22;64927;48.214;16.378;2022-12-18T17:29:17;1.30;69.50
76168;DHT22;64927;48.214;16.378;2022-12-18T17:31:44;1.30;69.50
76168;DHT22;64927;48.214;16.378;2022-12-18T17:34:11;1.40;69.60
76168;DHT22;64927;48.214;16.378;2022-12-18T17:36:37;1.40;69.70
76168;DHT22;64927;48.214;16.378;2022-12-18T17:39:10;1.40;69.80
76168;DHT22;64927;48.214;16.378;2022-12-18T17:41:42;1.30;70.60
76168;DHT22;64927;48.214;16.378;2022-12-18T17:44:09;1.20;71.10